Time;durP1;ratioP1;P1;durP2;ratioP2;P2;SDS_P1;SDS_P2;PMS_P1;PMS_P2;Temp;Humidity;BMP_temperature;BMP_pressure;BME280_temperature;BME280_humidity;BME280_pressure;Samples;Min_cycle;Max_cycle;Signal;HPM_P1;HPM_P2
2024/01/04 00:01:13;;;;;;;;;2.00;2.00;;;;;;;;5099939;27;46251;-76
2024/01/04 00:03:38;;;;;;;;;3.00;2.00;;;;;;;;5099778;27;45342;-77
2024/01/04 00:06:03;;;;;;;;;4.00;2.33;;;;;;;;5099915;27;45279;-77
2024/01/04 00:08:29;;;;;;;;;1.00;1.00;;;;;;;;5081306;27;46221;-77
2024/01/04 00:10:54;;;;;;;;;1.00;1.00;;;;;;;;5099846;27;46201;-76
2024/01/04 00:13:19;;;;;;;;;4.00;3.00;;;;;;;;5099787;27;45323;-77
2024/01/04 00:15:44;;;;;;;;;1.00;1.00;;;;;;;;5081676;27;45297;-78
2024/01/04 00:18:09;;;;;;;;;2.33;2.00;;;;;;;;5099573;27;45374;-79
2024/01/04 00:20:35;;;;;;;;;2.33;2.00;;;;;;;;5099286;27;45393;-76
2024/01/04 00:23:00;;;;;;;;;1.00;1.00;;;;;;;;5099838;27;45277;-77
2024/01/04 00:25:25;;;;;;;;;2.00;1.67;;;;;;;;5081342;27;45229;-77
2024/01/04 00:27:50;;;;;;;;;4.33;2.00;;;;;;;;5099690;27;45339;-78
2024/01/04 00:30:16;;;;;;;;;1.00;1.00;;;;;;;;5099583;27;45345;-77
2024/01/04 00:32:43;;;;;;;;;2.00;2.00;;;;;;;;5080887;27;45445;-76
2024/01/04 00:35:08;;;;;;;;;2.00;0.67;;;;;;;;5099744;27;45347;-77
2024/01/04 00:37:33;;;;;;;;;2.00;2.00;;;;;;;;5099499;27;45306;-77
2024/01/04 00:39:58;;;;;;;;;1.00;1.00;;;;;;;;5099605;27;46483;-77
2024/01/04 00:42:23;;;;;;;;;3.00;2.00;;;;;;;;5099531;27;45393;-77
2024/01/04 00:44:50;;;;;;;;;2.67;2.00;;;;;;;;5099724;27;45327;-77
2024/01/04 00:47:15;;;;;;;;;2.00;1.33;;;;;;;;5099435;27;45987;-77
2024/01/04 00:49:40;;;;;;;;;0.67;0.67;;;;;;;;5098981;27;45636;-78
2024/01/04 00:52:05;;;;;;;;;1.00;1.00;;;;;;;;5080764;27;45265;-77
2024/01/04 00:54:31;;;;;;;;;3.00;1.00;;;;;;;;5099393;27;45426;-78
2024/01/04 00:56:57;;;;;;;;;1.00;1.00;;;;;;;;5094074;27;45966;-78
2024/01/04 00:59:23;;;;;;;;;1.67;1.33;;;;;;;;5040498;28;47606;-78
2024/01/04 01:01:48;;;;;;;;;5.67;3.00;;;;;;;;5058182;28;45212;-77
2024/01/04 01:04:13;;;;;;;;;2.00;1.00;;;;;;;;5057195;28;45420;-78
2024/01/04 01:06:38;;;;;;;;;2.00;2.00;;;;;;;;5058219;28;45400;-78
2024/01/04 01:09:03;;;;;;;;;2.33;2.33;;;;;;;;5058303;28;45171;-78
2024/01/04 01:11:29;;;;;;;;;2.00;1.00;;;;;;;;5058470;28;45335;-78
2024/01/04 01:13:54;;;;;;;;;2.00;2.00;;;;;;;;5058566;28;45186;-78
2024/01/04 01:16:19;;;;;;;;;1.00;1.00;;;;;;;;5060968;28;45494;-77
2024/01/04 01:18:44;;;;;;;;;3.00;3.00;;;;;;;;5061321;28;46216;-78
2024/01/04 01:21:09;;;;;;;;;3.67;3.00;;;;;;;;5043266;28;45284;-79
2024/01/04 01:23:35;;;;;;;;;2.00;2.00;;;;;;;;5061931;28;45502;-77
2024/01/04 01:26:02;;;;;;;;;3.67;2.00;;;;;;;;5061367;28;45256;-77
2024/01/04 01:28:27;;;;;;;;;2.00;2.00;;;;;;;;5061572;28;46168;-78
2024/01/04 01:30:52;;;;;;;;;1.67;1.67;;;;;;;;5061504;28;45119;-78
2024/01/04 01:33:18;;;;;;;;;1.00;1.00;;;;;;;;5061738;28;45458;-77
2024/01/04 01:35:43;;;;;;;;;3.00;1.67;;;;;;;;5055744;28;46495;-77
2024/01/04 01:38:08;;;;;;;;;2.00;2.00;;;;;;;;5063146;28;47641;-77
2024/01/04 01:40:33;;;;;;;;;2.00;1.00;;;;;;;;5081331;28;45366;-78
2024/01/04 01:43:01;;;;;;;;;1.00;1.00;;;;;;;;5081975;28;45437;-78
2024/01/04 01:45:27;;;;;;;;;2.00;2.00;;;;;;;;5081597;28;45381;-77
2024/01/04 01:47:52;;;;;;;;;1.00;1.00;;;;;;;;5063216;28;48232;-77
2024/01/04 01:50:19;;;;;;;;;2.00;2.00;;;;;;;;5081047;28;45295;-77
2024/01/04 01:52:44;;;;;;;;;2.00;1.00;;;;;;;;5081627;28;45236;-77
2024/01/04 01:55:11;;;;;;;;;1.33;1.33;;;;;;;;5063146;28;47302;-78
2024/01/04 01:57:36;;;;;;;;;2.00;1.00;;;;;;;;5091205;27;45399;-77
2024/01/04 02:00:03;;;;;;;;;0.00;0.00;;;;;;;;5102089;27;45184;-77
2024/01/04 02:02:29;;;;;;;;;3.33;2.00;;;;;;;;5101915;27;45385;-77
2024/01/04 02:04:54;;;;;;;;;3.00;1.67;;;;;;;;5082977;27;45895;-77
2024/01/04 02:07:20;;;;;;;;;1.67;1.33;;;;;;;;5083364;27;47223;-77
2024/01/04 02:09:45;;;;;;;;;0.00;0.00;;;;;;;;5101773;27;45452;-78
2024/01/04 02:12:12;;;;;;;;;3.00;1.67;;;;;;;;5101296;27;45251;-77
2024/01/04 02:14:38;;;;;;;;;3.00;2.00;;;;;;;;5101569;27;46100;-77
2024/01/04 02:17:03;;;;;;;;;1.33;0.00;;;;;;;;5101631;27;45435;-77
2024/01/04 02:19:30;;;;;;;;;1.00;1.00;;;;;;;;5082688;27;45351;-77
2024/01/04 02:21:55;;;;;;;;;2.67;1.00;;;;;;;;5101767;27;45267;-77
2024/01/04 02:24:20;;;;;;;;;1.33;1.00;;;;;;;;5101483;27;45616;-78
2024/01/04 02:26:45;;;;;;;;;4.00;3.00;;;;;;;;5082645;27;47216;-77
2024/01/04 02:29:10;;;;;;;;;3.67;1.00;;;;;;;;5101524;27;45195;-78
2024/01/04 02:31:35;;;;;;;;;1.00;1.00;;;;;;;;5101526;27;45228;-76
2024/01/04 02:34:01;;;;;;;;;1.33;0.67;;;;;;;;5101276;27;45414;-77
2024/01/04 02:36:26;;;;;;;;;2.00;1.33;;;;;;;;5101405;27;45218;-78
2024/01/04 02:38:51;;;;;;;;;3.67;2.00;;;;;;;;5101083;27;45224;-78
2024/01/04 02:41:16;;;;;;;;;1.67;1.67;;;;;;;;5101506;27;45129;-78
2024/01/04 02:43:41;;;;;;;;;3.00;3.00;;;;;;;;5082843;27;47282;-78
2024/01/04 02:46:06;;;;;;;;;3.00;1.33;;;;;;;;5082621;27;47373;-79
2024/01/04 02:48:32;;;;;;;;;2.00;2.00;;;;;;;;5100935;27;45257;-78
2024/01/04 02:50:57;;;;;;;;;2.00;2.00;;;;;;;;5100887;27;45177;-77
2024/01/04 02:53:22;;;;;;;;;2.00;1.33;;;;;;;;5100980;27;45480;-78
2024/01/04 02:55:47;;;;;;;;;2.00;2.00;;;;;;;;5100684;27;45467;-78
2024/01/04 02:58:12;;;;;;;;;3.00;2.00;;;;;;;;5085392;27;45189;-78
2024/01/04 03:00:38;;;;;;;;;0.33;0.33;;;;;;;;5061851;28;45265;-77
2024/01/04 03:03:03;;;;;;;;;4.00;3.00;;;;;;;;5079319;28;45523;-78
2024/01/04 03:05:28;;;;;;;;;4.33;3.33;;;;;;;;5080032;28;45355;-78
2024/01/04 03:07:53;;;;;;;;;2.00;1.33;;;;;;;;5080467;28;45342;-78
2024/01/04 03:10:19;;;;;;;;;1.00;1.00;;;;;;;;5062160;28;45340;-77
2024/01/04 03:12:44;;;;;;;;;2.33;2.00;;;;;;;;5080239;28;45271;-78
2024/01/04 03:15:09;;;;;;;;;1.00;1.00;;;;;;;;5080277;28;46299;-78
2024/01/04 03:17:34;;;;;;;;;1.00;1.00;;;;;;;;5080136;28;45325;-78
2024/01/04 03:19:59;;;;;;;;;2.00;0.00;;;;;;;;5079879;28;45323;-78
2024/01/04 03:22:25;;;;;;;;;1.00;1.00;;;;;;;;5080061;28;45316;-79
2024/01/04 03:24:50;;;;;;;;;3.00;3.00;;;;;;;;5080057;28;45362;-78
2024/01/04 03:27:15;;;;;;;;;3.33;2.00;;;;;;;;5061750;28;46010;-78
2024/01/04 03:29:40;;;;;;;;;3.67;2.67;;;;;;;;5080339;28;45396;-78
2024/01/04 03:32:06;;;;;;;;;3.00;1.00;;;;;;;;5061792;28;46961;-78
2024/01/04 03:34:31;;;;;;;;;1.00;1.00;;;;;;;;5061328;28;48011;-79
2024/01/04 03:36:56;;;;;;;;;3.00;2.00;;;;;;;;5080050;28;45382;-77
2024/01/04 03:39:21;;;;;;;;;2.00;2.00;;;;;;;;5079524;28;45337;-77
2024/01/04 03:41:46;;;;;;;;;1.67;0.67;;;;;;;;5061633;28;46224;-77
2024/01/04 03:44:11;;;;;;;;;3.00;1.00;;;;;;;;5061338;28;48077;-78
2024/01/04 03:46:37;;;;;;;;;1.00;1.00;;;;;;;;5079539;28;45378;-77
2024/01/04 03:49:02;;;;;;;;;2.00;2.00;;;;;;;;5079658;28;45444;-78
2024/01/04 03:51:27;;;;;;;;;2.00;2.00;;;;;;;;5061197;28;47139;-78
2024/01/04 03:53:52;;;;;;;;;2.00;2.00;;;;;;;;5079557;28;45412;-77
2024/01/04 03:56:18;;;;;;;;;2.67;2.00;;;;;;;;5079729;28;45372;-77
2024/01/04 03:58:43;;;;;;;;;2.33;2.33;;;;;;;;5099133;27;45432;-78
2024/01/04 04:01:08;;;;;;;;;4.00;3.33;;;;;;;;5100052;27;45236;-78
2024/01/04 04:03:33;;;;;;;;;5.33;2.00;;;;;;;;5081399;27;47537;-78
2024/01/04 04:06:03;;;;;;;;;5.67;3.00;;;;;;;;5099928;27;45266;-78
2024/01/04 04:08:28;;;;;;;;;0.33;0.33;;;;;;;;5100135;27;45333;-78
2024/01/04 04:10:54;;;;;;;;;1.33;1.33;;;;;;;;5099785;27;45420;-78
2024/01/04 04:13:19;;;;;;;;;2.00;1.00;;;;;;;;5099776;27;45349;-78
2024/01/04 04:15:44;;;;;;;;;3.00;2.00;;;;;;;;5081317;27;45913;-78
2024/01/04 04:18:09;;;;;;;;;2.00;1.00;;;;;;;;5099940;27;45267;-78
2024/01/04 04:20:35;;;;;;;;;2.00;2.00;;;;;;;;5099535;27;45333;-78
2024/01/04 04:23:00;;;;;;;;;3.00;2.33;;;;;;;;5099652;27;45342;-78
2024/01/04 04:25:26;;;;;;;;;0.67;0.33;;;;;;;;5081193;27;46031;-78
2024/01/04 04:27:51;;;;;;;;;3.67;2.33;;;;;;;;5081406;27;45307;-78
2024/01/04 04:30:17;;;;;;;;;3.67;2.67;;;;;;;;5099690;27;45335;-78
2024/01/04 04:32:42;;;;;;;;;3.00;2.00;;;;;;;;5099536;27;45263;-78
2024/01/04 04:35:07;;;;;;;;;1.33;1.33;;;;;;;;5099216;27;45294;-78
2024/01/04 04:37:32;;;;;;;;;2.00;1.00;;;;;;;;5099786;27;45436;-77
2024/01/04 04:39:58;;;;;;;;;2.33;2.33;;;;;;;;5099604;27;45438;-78
2024/01/04 04:42:23;;;;;;;;;1.67;1.00;;;;;;;;5099541;27;46442;-77
2024/01/04 04:44:48;;;;;;;;;2.67;2.00;;;;;;;;5081110;27;46175;-77
2024/01/04 04:47:13;;;;;;;;;2.00;2.00;;;;;;;;5069981;27;45535;-78
2024/01/04 04:49:38;;;;;;;;;3.33;2.00;;;;;;;;5058667;28;45299;-78
2024/01/04 04:52:04;;;;;;;;;3.00;1.67;;;;;;;;5061399;28;45293;-78
2024/01/04 04:54:29;;;;;;;;;2.00;1.00;;;;;;;;5061469;28;45519;-78
2024/01/04 04:56:55;;;;;;;;;2.67;2.00;;;;;;;;5070603;27;45352;-78
2024/01/04 04:59:20;;;;;;;;;4.67;2.00;;;;;;;;5102789;27;45463;-78
2024/01/04 05:01:45;;;;;;;;;1.00;1.00;;;;;;;;5102805;27;45512;-78
2024/01/04 05:04:10;;;;;;;;;4.33;1.00;;;;;;;;5084208;27;45380;-79
2024/01/04 05:06:36;;;;;;;;;4.00;2.00;;;;;;;;5102888;27;45310;-78
2024/01/04 05:09:01;;;;;;;;;1.00;1.00;;;;;;;;5084298;27;46152;-78
2024/01/04 05:11:26;;;;;;;;;2.33;1.00;;;;;;;;5102608;27;45292;-78
2024/01/04 05:13:51;;;;;;;;;1.00;1.00;;;;;;;;5102110;27;45330;-78
2024/01/04 05:16:19;;;;;;;;;1.00;1.00;;;;;;;;5102756;27;45313;-78
2024/01/04 05:18:44;;;;;;;;;3.00;1.33;;;;;;;;5102321;27;45361;-78
2024/01/04 05:21:09;;;;;;;;;7.00;2.33;;;;;;;;5102122;27;45364;-77
2024/01/04 05:23:34;;;;;;;;;2.00;2.00;;;;;;;;5102509;27;45334;-77
2024/01/04 05:25:59;;;;;;;;;2.00;2.00;;;;;;;;5102462;27;45338;-78
2024/01/04 05:28:25;;;;;;;;;3.33;1.67;;;;;;;;5102537;27;45429;-78
2024/01/04 05:30:50;;;;;;;;;2.33;1.33;;;;;;;;5102222;27;46114;-78
2024/01/04 05:33:15;;;;;;;;;1.67;1.00;;;;;;;;5102039;27;45468;-78
2024/01/04 05:35:40;;;;;;;;;6.33;2.67;;;;;;;;5102076;27;45347;-77
2024/01/04 05:38:06;;;;;;;;;1.00;1.00;;;;;;;;5101221;27;45366;-77
2024/01/04 05:40:31;;;;;;;;;2.33;1.33;;;;;;;;5102065;27;45470;-77
2024/01/04 05:42:57;;;;;;;;;3.00;1.00;;;;;;;;5102289;27;45351;-77
2024/01/04 05:45:22;;;;;;;;;5.00;4.00;;;;;;;;5102281;27;45308;-78
2024/01/04 05:47:48;;;;;;;;;1.67;1.67;;;;;;;;5085235;27;45267;-77
2024/01/04 05:50:13;;;;;;;;;2.33;1.33;;;;;;;;5080719;28;46236;-77
2024/01/04 05:52:38;;;;;;;;;0.67;0.67;;;;;;;;5080603;28;45486;-77
2024/01/04 05:55:04;;;;;;;;;3.00;3.00;;;;;;;;5062785;28;45501;-78
2024/01/04 05:57:29;;;;;;;;;1.67;1.00;;;;;;;;5090404;27;45247;-77
2024/01/04 05:59:54;;;;;;;;;2.33;1.67;;;;;;;;5101929;27;45252;-77
2024/01/04 06:02:20;;;;;;;;;1.33;1.33;;;;;;;;5101392;27;45184;-77
2024/01/04 06:04:45;;;;;;;;;1.67;1.33;;;;;;;;5101797;27;45780;-77
2024/01/04 06:07:10;;;;;;;;;1.00;1.00;;;;;;;;5101789;27;45313;-77
2024/01/04 06:09:35;;;;;;;;;3.33;3.00;;;;;;;;5101704;27;45315;-77
2024/01/04 06:12:00;;;;;;;;;1.67;1.67;;;;;;;;5083203;27;45255;-77
2024/01/04 06:14:30;;;;;;;;;2.00;2.00;;;;;;;;5083489;27;45814;-78
2024/01/04 06:16:55;;;;;;;;;3.67;3.67;;;;;;;;5083136;27;47547;-78
2024/01/04 06:19:20;;;;;;;;;3.67;1.00;;;;;;;;5082541;27;47407;-78
2024/01/04 06:21:46;;;;;;;;;3.67;3.00;;;;;;;;5082921;27;45362;-78
2024/01/04 06:24:11;;;;;;;;;5.00;3.00;;;;;;;;5101786;27;45370;-77
2024/01/04 06:26:36;;;;;;;;;3.67;3.67;;;;;;;;5100771;27;45386;-77
2024/01/04 06:29:01;;;;;;;;;2.00;2.00;;;;;;;;5100334;27;46874;-77
2024/01/04 06:31:26;;;;;;;;;6.00;6.00;;;;;;;;5082188;27;45328;-77
2024/01/04 06:33:52;;;;;;;;;7.67;6.00;;;;;;;;5101227;27;45467;-78
2024/01/04 06:36:17;;;;;;;;;4.33;4.00;;;;;;;;5082807;27;46421;-78
2024/01/04 06:38:42;;;;;;;;;5.67;4.67;;;;;;;;5101321;27;45444;-78
2024/01/04 06:41:07;;;;;;;;;4.67;4.00;;;;;;;;5101362;27;45324;-79
2024/01/04 06:43:33;;;;;;;;;3.00;3.00;;;;;;;;5101286;27;45287;-78
2024/01/04 06:45:58;;;;;;;;;5.00;4.00;;;;;;;;5101297;27;45460;-76
2024/01/04 06:48:24;;;;;;;;;5.00;4.00;;;;;;;;5101056;27;45283;-77
2024/01/04 06:50:49;;;;;;;;;5.00;3.00;;;;;;;;5082181;27;45689;-77
2024/01/04 06:53:14;;;;;;;;;4.00;2.00;;;;;;;;5101318;27;45211;-77
2024/01/04 06:55:40;;;;;;;;;5.67;4.33;;;;;;;;5101010;27;45175;-77
2024/01/04 06:58:05;;;;;;;;;2.00;2.00;;;;;;;;5086667;27;46086;-77
2024/01/04 07:00:30;;;;;;;;;3.67;3.67;;;;;;;;5061958;28;45260;-76
2024/01/04 07:02:56;;;;;;;;;2.67;2.00;;;;;;;;5080639;28;45299;-77
2024/01/04 07:05:21;;;;;;;;;3.00;3.00;;;;;;;;5061796;28;47343;-77
2024/01/04 07:07:46;;;;;;;;;5.67;3.00;;;;;;;;5080173;28;45187;-78
2024/01/04 07:10:11;;;;;;;;;2.67;1.33;;;;;;;;5062024;28;45295;-75
2024/01/04 07:12:36;;;;;;;;;2.33;2.00;;;;;;;;5079138;28;45185;-75
2024/01/04 07:15:02;;;;;;;;;2.00;2.00;;;;;;;;5080304;28;45686;-75
2024/01/04 07:17:27;;;;;;;;;0.67;0.00;;;;;;;;5080083;28;45280;-76
2024/01/04 07:19:53;;;;;;;;;3.33;2.00;;;;;;;;5079903;28;45441;-77
2024/01/04 07:22:19;;;;;;;;;4.00;3.67;;;;;;;;5080251;28;45383;-77
2024/01/04 07:24:45;;;;;;;;;5.00;3.00;;;;;;;;5061787;28;46606;-75
2024/01/04 07:27:10;;;;;;;;;3.00;3.00;;;;;;;;5079911;28;46060;-76
2024/01/04 07:29:36;;;;;;;;;1.00;1.00;;;;;;;;5061911;28;45376;-75
2024/01/04 07:32:01;;;;;;;;;2.67;0.67;;;;;;;;5080203;28;45315;-76
2024/01/04 07:34:27;;;;;;;;;0.00;0.00;;;;;;;;5079648;28;45347;-75
2024/01/04 07:36:52;;;;;;;;;3.00;2.67;;;;;;;;5079715;28;46404;-74
2024/01/04 07:39:17;;;;;;;;;1.33;1.33;;;;;;;;5079894;28;45375;-77
2024/01/04 07:41:46;;;;;;;;;1.00;0.00;;;;;;;;5061845;28;45484;-75
2024/01/04 07:44:11;;;;;;;;;2.00;2.00;;;;;;;;5079442;28;45419;-77
2024/01/04 07:46:37;;;;;;;;;1.67;1.67;;;;;;;;5052833;28;48287;-76
2024/01/04 07:49:06;;;;;;;;;2.00;2.00;;;;;;;;5071080;28;45506;-75
2024/01/04 07:51:31;;;;;;;;;3.00;2.00;;;;;;;;5071050;28;46614;-75
2024/01/04 07:53:57;;;;;;;;;3.00;3.00;;;;;;;;5066913;28;45308;-75
2024/01/04 07:56:22;;;;;;;;;3.33;2.00;;;;;;;;5070628;28;46499;-75
2024/01/04 07:58:47;;;;;;;;;3.33;2.67;;;;;;;;5052894;28;45385;-75
2024/01/04 08:01:13;;;;;;;;;6.00;3.00;;;;;;;;5049540;28;45482;-76
2024/01/04 08:03:38;;;;;;;;;3.00;3.00;;;;;;;;5051053;28;47510;-75
2024/01/04 08:06:05;;;;;;;;;3.67;2.00;;;;;;;;5071017;28;45429;-75
2024/01/04 08:08:30;;;;;;;;;4.00;3.00;;;;;;;;5068288;27;45706;-75
2024/01/04 08:10:55;;;;;;;;;2.67;2.33;;;;;;;;5051562;28;45442;-76
2024/01/04 08:13:21;;;;;;;;;7.00;3.67;;;;;;;;5052218;28;45869;-75
2024/01/04 08:15:46;;;;;;;;;6.33;5.00;;;;;;;;5068036;28;47483;-77
2024/01/04 08:18:11;;;;;;;;;6.33;4.00;;;;;;;;5052324;28;46077;-77
2024/01/04 08:20:36;;;;;;;;;1.67;1.67;;;;;;;;5070147;28;45780;-76
2024/01/04 08:23:01;;;;;;;;;5.33;5.33;;;;;;;;5068194;27;45580;-76
2024/01/04 08:25:27;;;;;;;;;5.67;4.33;;;;;;;;5055018;28;47200;-76
2024/01/04 08:27:52;;;;;;;;;7.33;6.00;;;;;;;;5074723;27;45601;-76
2024/01/04 08:30:18;;;;;;;;;4.33;3.33;;;;;;;;5071675;28;45428;-76
2024/01/04 08:32:43;;;;;;;;;2.00;2.00;;;;;;;;5054901;28;46274;-75
2024/01/04 08:35:08;;;;;;;;;6.00;3.67;;;;;;;;5072140;28;46180;-75
2024/01/04 08:37:33;;;;;;;;;4.33;4.00;;;;;;;;5053815;28;45565;-75
2024/01/04 08:39:59;;;;;;;;;7.00;5.00;;;;;;;;5072953;28;45445;-76
2024/01/04 08:42:24;;;;;;;;;4.00;3.00;;;;;;;;5076103;27;45411;-75
2024/01/04 08:44:49;;;;;;;;;3.00;2.00;;;;;;;;5071209;28;47457;-77
2024/01/04 08:47:14;;;;;;;;;3.67;2.00;;;;;;;;5055883;27;45424;-76
2024/01/04 08:49:39;;;;;;;;;5.00;4.00;;;;;;;;5054754;28;45735;-78
2024/01/04 08:52:05;;;;;;;;;5.67;5.00;;;;;;;;5071696;28;45607;-75
2024/01/04 08:54:30;;;;;;;;;5.67;5.67;;;;;;;;5075783;27;46237;-75
2024/01/04 08:56:55;;;;;;;;;4.00;3.00;;;;;;;;5077346;27;45853;-76
2024/01/04 08:59:21;;;;;;;;;4.00;4.00;;;;;;;;5072011;27;45793;-76
2024/01/04 09:01:46;;;;;;;;;6.67;6.33;;;;;;;;5071912;28;45814;-75
2024/01/04 09:04:11;;;;;;;;;7.00;4.67;;;;;;;;5075115;27;45550;-76
2024/01/04 09:06:36;;;;;;;;;6.67;6.67;;;;;;;;5053578;28;45849;-76
2024/01/04 09:09:05;;;;;;;;;8.00;6.33;;;;;;;;5073426;28;45489;-76
2024/01/04 09:11:30;;;;;;;;;4.33;4.33;;;;;;;;5073086;28;45840;-77
2024/01/04 09:13:55;;;;;;;;;4.67;4.67;;;;;;;;5075911;27;45756;-76
2024/01/04 09:16:22;;;;;;;;;6.33;5.33;;;;;;;;5073263;28;45846;-77
2024/01/04 09:18:47;;;;;;;;;5.00;4.00;;;;;;;;5055305;28;45352;-77
2024/01/04 09:21:13;;;;;;;;;3.00;3.00;;;;;;;;5070665;28;46045;-77
2024/01/04 09:23:39;;;;;;;;;5.67;5.00;;;;;;;;5072793;28;45663;-78
2024/01/04 09:26:08;;;;;;;;;6.67;6.33;;;;;;;;5055301;28;45810;-77
2024/01/04 09:28:34;;;;;;;;;4.00;3.33;;;;;;;;5071787;27;45483;-75
2024/01/04 09:30:59;;;;;;;;;6.67;4.67;;;;;;;;5053744;28;47422;-76
2024/01/04 09:33:24;;;;;;;;;8.33;6.33;;;;;;;;5072033;28;46540;-78
2024/01/04 09:35:49;;;;;;;;;5.00;3.33;;;;;;;;5065981;28;45414;-75
2024/01/04 09:38:14;;;;;;;;;6.33;3.67;;;;;;;;5055892;28;45506;-77
2024/01/04 09:40:40;;;;;;;;;7.00;3.00;;;;;;;;5072604;28;45804;-76
2024/01/04 09:43:05;;;;;;;;;9.00;7.33;;;;;;;;5070529;28;46073;-76
2024/01/04 09:45:32;;;;;;;;;5.00;4.00;;;;;;;;5054279;28;45434;-77
2024/01/04 09:47:59;;;;;;;;;5.00;5.00;;;;;;;;5073935;28;45355;-76
2024/01/04 09:50:25;;;;;;;;;4.00;4.00;;;;;;;;5069347;28;45512;-77
2024/01/04 09:52:51;;;;;;;;;7.00;5.00;;;;;;;;5072927;28;46036;-77
2024/01/04 09:55:18;;;;;;;;;6.00;5.00;;;;;;;;5073536;28;45811;-81
2024/01/04 09:57:59;;;;;;;;;6.00;3.67;;;;;;;;5052993;28;46241;-78
2024/01/04 10:00:33;;;;;;;;;5.00;4.33;;;;;;;;5070773;28;46408;-79
2024/01/04 10:03:03;;;;;;;;;6.00;5.67;;;;;;;;5072985;28;46499;-78
2024/01/04 10:05:30;;;;;;;;;5.67;5.00;;;;;;;;5073049;28;45303;-77
2024/01/04 10:08:11;;;;;;;;;7.33;5.00;;;;;;;;5071261;28;45511;-78
2024/01/04 10:10:40;;;;;;;;;3.00;3.00;;;;;;;;5068975;28;45432;-80
2024/01/04 10:13:06;;;;;;;;;7.00;4.00;;;;;;;;5054307;28;47691;-77
2024/01/04 10:15:32;;;;;;;;;4.33;2.67;;;;;;;;5054124;28;45879;-80
2024/01/04 10:17:58;;;;;;;;;5.00;5.00;;;;;;;;5052994;28;45715;-79
2024/01/04 10:20:23;;;;;;;;;4.33;3.00;;;;;;;;5053811;28;45512;-76
2024/01/04 10:22:49;;;;;;;;;5.33;4.00;;;;;;;;5071691;28;46217;-79
2024/01/04 10:25:18;;;;;;;;;7.00;4.67;;;;;;;;5075846;28;45646;-79
2024/01/04 10:27:53;;;;;;;;;4.33;4.33;;;;;;;;5077399;28;45324;-79
2024/01/04 10:30:19;;;;;;;;;5.00;4.67;;;;;;;;5047284;28;46285;-77
2024/01/04 10:32:48;;;;;;;;;5.00;3.67;;;;;;;;5071183;28;46385;-78
2024/01/04 10:35:13;;;;;;;;;3.00;3.00;;;;;;;;5070727;28;45272;-78
2024/01/04 10:37:38;;;;;;;;;4.67;4.67;;;;;;;;5075386;28;45408;-77
2024/01/04 10:40:05;;;;;;;;;8.00;4.33;;;;;;;;5069100;28;45527;-78
2024/01/04 10:42:31;;;;;;;;;5.33;5.33;;;;;;;;5069699;28;45369;-77
2024/01/04 10:44:56;;;;;;;;;5.00;5.00;;;;;;;;5065178;28;45742;-79
2024/01/04 10:47:23;;;;;;;;;3.33;3.00;;;;;;;;5060458;28;45532;-76
2024/01/04 10:49:48;;;;;;;;;4.67;3.33;;;;;;;;5060007;28;45328;-77
2024/01/04 10:52:15;;;;;;;;;5.00;5.00;;;;;;;;5059713;28;45238;-79
2024/01/04 10:54:44;;;;;;;;;4.33;3.00;;;;;;;;5065996;28;45351;-78
2024/01/04 10:57:10;;;;;;;;;4.33;3.67;;;;;;;;5072629;27;45382;-78
2024/01/04 10:59:36;;;;;;;;;5.00;4.33;;;;;;;;5100706;27;45397;-77
2024/01/04 11:02:01;;;;;;;;;3.33;3.33;;;;;;;;5073974;27;46029;-76
2024/01/04 11:04:27;;;;;;;;;7.33;5.33;;;;;;;;5058994;28;45914;-76
2024/01/04 11:06:53;;;;;;;;;5.33;5.00;;;;;;;;5080501;28;45356;-75
2024/01/04 11:09:19;;;;;;;;;6.33;6.00;;;;;;;;5062144;28;46186;-76
2024/01/04 11:11:44;;;;;;;;;7.67;6.33;;;;;;;;5061776;28;48215;-77
2024/01/04 11:14:09;;;;;;;;;7.00;7.00;;;;;;;;5062118;28;45326;-76
2024/01/04 11:16:40;;;;;;;;;6.00;4.33;;;;;;;;5080448;28;45273;-76
2024/01/04 11:19:24;;;;;;;;;7.67;6.00;;;;;;;;5079599;28;45486;-75
2024/01/04 11:21:58;;;;;;;;;7.33;5.00;;;;;;;;5079887;28;46196;-75
2024/01/04 11:24:40;;;;;;;;;8.67;7.67;;;;;;;;5080158;28;45325;-75
2024/01/04 11:27:09;;;;;;;;;7.33;6.67;;;;;;;;5079797;28;45390;-78
2024/01/04 11:29:35;;;;;;;;;8.67;6.67;;;;;;;;5079915;28;45367;-76
2024/01/04 11:32:00;;;;;;;;;7.00;5.00;;;;;;;;5079654;28;45351;-77
2024/01/04 11:34:26;;;;;;;;;10.00;8.00;;;;;;;;5079428;28;45316;-76
2024/01/04 11:37:07;;;;;;;;;7.33;7.33;;;;;;;;5079184;28;45384;-75
2024/01/04 11:39:32;;;;;;;;;8.67;7.00;;;;;;;;5079985;28;45221;-76
2024/01/04 11:41:58;;;;;;;;;4.33;4.33;;;;;;;;5073688;28;45161;-75
2024/01/04 11:44:23;;;;;;;;;8.33;7.67;;;;;;;;5064148;28;45253;-76
2024/01/04 11:46:53;;;;;;;;;5.67;5.67;;;;;;;;5079310;28;45649;-75
2024/01/04 11:49:19;;;;;;;;;7.33;7.00;;;;;;;;5064436;28;45446;-78
2024/01/04 11:51:44;;;;;;;;;9.00;6.00;;;;;;;;5069781;28;45974;-76
2024/01/04 11:54:10;;;;;;;;;7.67;7.00;;;;;;;;5068972;28;45423;-76
2024/01/04 11:56:37;;;;;;;;;7.67;6.67;;;;;;;;5071160;27;45263;-77
2024/01/04 11:59:09;;;;;;;;;6.33;5.00;;;;;;;;5049985;28;45786;-75
2024/01/04 12:01:44;;;;;;;;;8.67;5.00;;;;;;;;5054483;28;48300;-75
2024/01/04 12:04:13;;;;;;;;;10.00;7.00;;;;;;;;5067193;28;45288;-76
2024/01/04 12:06:39;;;;;;;;;8.00;6.00;;;;;;;;5069784;28;45434;-76
2024/01/04 12:09:06;;;;;;;;;6.00;5.00;;;;;;;;5049941;28;45405;-76
2024/01/04 12:11:31;;;;;;;;;11.00;9.00;;;;;;;;5068575;28;45790;-76
2024/01/04 12:13:56;;;;;;;;;7.33;7.33;;;;;;;;5070024;28;45243;-77
2024/01/04 12:16:21;;;;;;;;;9.33;7.33;;;;;;;;5049397;28;45373;-76
2024/01/04 12:18:46;;;;;;;;;9.67;5.33;;;;;;;;5064028;28;45376;-76
2024/01/04 12:21:12;;;;;;;;;7.33;5.00;;;;;;;;5066837;28;46683;-76
2024/01/04 12:23:38;;;;;;;;;6.33;5.00;;;;;;;;5069144;27;45370;-75
2024/01/04 12:26:05;;;;;;;;;16.00;9.00;;;;;;;;5063068;28;45518;-75
2024/01/04 12:28:31;;;;;;;;;8.33;7.00;;;;;;;;5050804;28;46367;-76
2024/01/04 12:30:56;;;;;;;;;9.00;8.00;;;;;;;;5070420;27;45532;-75
2024/01/04 12:33:21;;;;;;;;;9.33;9.00;;;;;;;;5065436;28;45449;-76
2024/01/04 12:35:55;;;;;;;;;8.00;7.00;;;;;;;;5060524;27;45501;-77
2024/01/04 12:38:24;;;;;;;;;9.33;5.33;;;;;;;;5042347;28;46375;-77
2024/01/04 12:40:49;;;;;;;;;6.67;5.67;;;;;;;;5058135;28;46073;-76
2024/01/04 12:43:14;;;;;;;;;10.33;7.67;;;;;;;;5057000;28;45552;-76
2024/01/04 12:45:40;;;;;;;;;6.67;6.00;;;;;;;;5037681;28;45343;-76
2024/01/04 12:48:07;;;;;;;;;6.00;4.33;;;;;;;;5055403;28;45463;-75
2024/01/04 12:50:34;;;;;;;;;6.00;6.00;;;;;;;;5059688;27;45387;-77
2024/01/04 12:53:00;;;;;;;;;8.67;8.00;;;;;;;;5057467;28;45718;-76
2024/01/04 12:55:26;;;;;;;;;8.00;6.00;;;;;;;;5059199;28;45656;-76
2024/01/04 12:57:51;;;;;;;;;5.33;4.00;;;;;;;;5085236;27;45472;-75
2024/01/04 13:00:17;;;;;;;;;8.00;6.67;;;;;;;;5077895;28;46139;-76
2024/01/04 13:02:42;;;;;;;;;13.00;8.00;;;;;;;;5060094;28;45430;-75
2024/01/04 13:05:10;;;;;;;;;9.00;8.00;;;;;;;;5076798;28;46486;-76
2024/01/04 13:07:35;;;;;;;;;9.33;7.33;;;;;;;;5059556;28;46842;-76
2024/01/04 13:10:01;;;;;;;;;13.00;9.00;;;;;;;;5074207;28;45318;-76
2024/01/04 13:12:26;;;;;;;;;9.00;7.67;;;;;;;;5071986;28;45263;-75
2024/01/04 13:14:51;;;;;;;;;10.00;8.33;;;;;;;;5080402;28;45512;-76
2024/01/04 13:17:16;;;;;;;;;9.00;7.67;;;;;;;;5063514;28;45610;-75
2024/01/04 13:19:41;;;;;;;;;11.33;9.00;;;;;;;;5059341;28;45280;-76
2024/01/04 13:22:13;;;;;;;;;13.33;10.67;;;;;;;;5044653;28;45335;-76
2024/01/04 13:24:38;;;;;;;;;9.00;9.00;;;;;;;;5064255;28;45614;-76
2024/01/04 13:27:03;;;;;;;;;7.33;6.67;;;;;;;;5060201;28;45322;-76
2024/01/04 13:29:29;;;;;;;;;6.33;6.00;;;;;;;;5060278;28;45695;-76
2024/01/04 13:31:54;;;;;;;;;7.00;6.00;;;;;;;;5073844;28;45553;-76
2024/01/04 13:34:19;;;;;;;;;9.00;7.00;;;;;;;;5050620;28;45454;-75
2024/01/04 13:36:44;;;;;;;;;10.00;5.00;;;;;;;;5060497;28;45461;-76
2024/01/04 13:39:10;;;;;;;;;11.00;8.00;;;;;;;;5060381;28;45470;-76
2024/01/04 13:41:35;;;;;;;;;10.00;8.00;;;;;;;;5060881;28;45287;-76
2024/01/04 13:44:01;;;;;;;;;8.00;7.67;;;;;;;;5060776;28;45676;-76
2024/01/04 13:46:27;;;;;;;;;11.67;8.00;;;;;;;;5074196;28;45445;-76
2024/01/04 13:48:52;;;;;;;;;12.67;10.00;;;;;;;;5054065;28;48374;-75
2024/01/04 13:51:18;;;;;;;;;6.33;5.67;;;;;;;;5060183;28;45500;-76
2024/01/04 13:53:43;;;;;;;;;9.33;8.33;;;;;;;;5064489;27;45480;-76
2024/01/04 13:56:09;;;;;;;;;10.33;8.00;;;;;;;;5061787;28;46194;-75
2024/01/04 13:58:34;;;;;;;;;2.67;2.00;;;;;;;;5074681;27;45723;-77
2024/01/04 14:00:59;;;;;;;;;7.33;5.67;;;;;;;;5062935;28;45275;-77
2024/01/04 14:03:31;;;;;;;;;7.00;7.00;;;;;;;;5056410;27;45408;-76
2024/01/04 14:05:56;;;;;;;;;10.00;6.33;;;;;;;;5067851;28;45560;-76
2024/01/04 14:08:22;;;;;;;;;10.67;7.67;;;;;;;;5066282;28;46189;-76
2024/01/04 14:10:47;;;;;;;;;4.33;3.00;;;;;;;;5048684;28;45511;-77
2024/01/04 14:13:12;;;;;;;;;8.33;7.00;;;;;;;;5057843;28;45406;-77
2024/01/04 14:15:37;;;;;;;;;4.00;3.00;;;;;;;;5068609;28;45796;-77
2024/01/04 14:18:03;;;;;;;;;8.00;7.00;;;;;;;;5069788;28;45629;-77
2024/01/04 14:20:28;;;;;;;;;9.00;6.00;;;;;;;;5057073;28;45702;-76
2024/01/04 14:22:54;;;;;;;;;10.67;6.33;;;;;;;;5057969;28;45669;-75
2024/01/04 14:25:20;;;;;;;;;7.00;5.00;;;;;;;;5059728;28;45359;-76
2024/01/04 14:27:45;;;;;;;;;6.33;6.33;;;;;;;;5059167;28;46352;-75
2024/01/04 14:30:10;;;;;;;;;6.67;6.00;;;;;;;;5061995;28;45390;-76
2024/01/04 14:32:36;;;;;;;;;7.67;5.67;;;;;;;;5060728;28;45371;-75
2024/01/04 14:35:05;;;;;;;;;10.67;7.00;;;;;;;;5080382;28;45565;-75